Time;durP1;ratioP1;P1;durP2;ratioP2;P2;SDS_P1;SDS_P2;PMS_P1;PMS_P2;Temp;Humidity;BMP_temperature;BMP_pressure;BME280_temperature;BME280_humidity;BME280_pressure;Samples;Min_cycle;Max_cycle;Signal;HPM_P1;HPM_P2
2022/07/11 00:02:15;;;;;;;12.00;8.07;;;13.80;99.90;;;;;;5048231;28;20086;-73
2022/07/11 00:04:43;;;;;;;10.98;7.47;;;13.70;99.90;;;;;;5046168;28;20071;-74
2022/07/11 00:07:10;;;;;;;14.65;8.20;;;13.60;99.90;;;;;;5030626;28;20041;-73
2022/07/11 00:09:36;;;;;;;16.08;8.65;;;13.60;99.90;;;;;;5039518;28;21056;-73
2022/07/11 00:12:04;;;;;;;12.98;8.00;;;13.70;99.90;;;;;;5043339;28;20052;-73
2022/07/11 00:14:31;;;;;;;15.75;7.82;;;13.50;99.90;;;;;;5039054;28;20539;-73
2022/07/11 00:16:57;;;;;;;16.55;9.15;;;13.60;99.90;;;;;;5032597;28;20057;-73
2022/07/11 00:19:24;;;;;;;17.95;8.20;;;13.80;99.90;;;;;;5032589;28;20503;-73
2022/07/11 00:21:52;;;;;;;19.52;9.05;;;13.70;99.90;;;;;;5030406;28;20044;-73
2022/07/11 00:24:19;;;;;;;18.42;9.23;;;13.80;99.90;;;;;;5038382;28;20509;-73
2022/07/11 00:26:47;;;;;;;14.57;8.73;;;13.80;99.90;;;;;;5036049;28;20048;-73
2022/07/11 00:29:15;;;;;;;11.40;8.48;;;13.90;99.90;;;;;;5031310;28;20049;-73
2022/07/11 00:31:42;;;;;;;17.35;9.43;;;13.90;99.90;;;;;;5037770;28;20052;-74
2022/07/11 00:34:10;;;;;;;16.70;8.43;;;13.80;99.90;;;;;;5045054;28;20040;-74
2022/07/11 00:36:37;;;;;;;17.83;8.88;;;13.80;99.90;;;;;;5042719;28;20539;-73
2022/07/11 00:39:04;;;;;;;16.17;10.07;;;13.80;99.90;;;;;;5044654;28;20649;-73
2022/07/11 00:41:32;;;;;;;18.25;9.63;;;13.80;99.90;;;;;;5040092;28;20041;-74
2022/07/11 00:44:01;;;;;;;13.88;9.88;;;13.90;99.90;;;;;;5043752;28;20049;-73
2022/07/11 00:46:29;;;;;;;16.13;10.48;;;13.90;99.90;;;;;;5042286;28;20046;-73
2022/07/11 00:48:57;;;;;;;17.95;10.73;;;13.90;99.90;;;;;;5045359;28;20044;-74
2022/07/11 00:51:25;;;;;;;24.15;11.43;;;13.90;99.90;;;;;;5034426;28;20484;-73
2022/07/11 00:53:54;;;;;;;18.80;11.35;;;13.90;99.90;;;;;;5044538;28;20045;-73
2022/07/11 00:56:24;;;;;;;14.77;10.93;;;14.00;99.90;;;;;;5042012;28;20718;-73
2022/07/11 00:58:52;;;;;;;17.90;11.23;;;13.90;99.90;;;;;;5047006;28;20499;-73
2022/07/11 01:01:19;;;;;;;19.10;12.18;;;13.90;99.90;;;;;;5041022;28;20086;-73
2022/07/11 01:03:46;;;;;;;20.40;12.88;;;14.00;99.90;;;;;;5043803;28;20051;-73
2022/07/11 01:06:13;;;;;;;15.52;11.75;;;14.10;99.90;;;;;;5038686;28;20514;-73
2022/07/11 01:08:40;;;;;;;16.55;11.02;;;14.10;99.90;;;;;;5047751;28;20052;-73
2022/07/11 01:11:12;;;;;;;14.18;11.45;;;14.00;99.90;;;;;;5031018;28;20040;-73
2022/07/11 01:13:40;;;;;;;18.73;11.65;;;14.10;99.90;;;;;;5034027;28;20037;-73
2022/07/11 01:16:15;;;;;;;24.05;11.27;;;14.00;99.90;;;;;;5039402;28;20064;-73
2022/07/11 01:18:45;;;;;;;13.63;11.20;;;14.00;99.90;;;;;;5018280;28;20045;-73
2022/07/11 01:21:41;;;;;;;15.55;11.60;;;14.00;99.90;;;;;;5029857;28;20122;-73
2022/07/11 01:24:09;;;;;;;17.48;12.20;;;13.90;99.90;;;;;;5019018;28;20048;-74
2022/07/11 01:26:36;;;;;;;18.58;11.73;;;13.90;99.90;;;;;;5019659;28;20467;-73
2022/07/11 01:29:10;;;;;;;18.35;11.32;;;13.90;99.90;;;;;;5040254;28;20118;-73
2022/07/11 01:31:44;;;;;;;17.23;11.18;;;13.90;99.90;;;;;;5042511;28;20131;-73
2022/07/11 01:34:11;;;;;;;18.17;11.55;;;13.80;99.90;;;;;;5040538;28;20095;-73
2022/07/11 01:36:39;;;;;;;15.45;11.32;;;13.80;99.90;;;;;;5044559;28;20449;-72
2022/07/11 01:39:06;;;;;;;19.63;11.52;;;13.90;99.90;;;;;;5042969;28;20037;-73
2022/07/11 01:41:32;;;;;;;16.10;11.32;;;13.90;99.90;;;;;;5039401;28;20091;-73
2022/07/11 01:43:59;;;;;;;17.70;11.60;;;13.80;99.90;;;;;;5039486;28;20654;-73
2022/07/11 01:46:26;;;;;;;21.48;12.68;;;13.90;99.90;;;;;;5028035;28;20045;-73
2022/07/11 01:48:53;;;;;;;16.25;11.88;;;13.90;99.90;;;;;;5038093;28;20044;-73
2022/07/11 01:51:22;;;;;;;14.85;12.80;;;13.80;99.90;;;;;;5040132;28;20091;-73
2022/07/11 01:53:48;;;;;;;19.25;13.23;;;13.60;99.90;;;;;;5046465;28;20087;-73
2022/07/11 01:56:15;;;;;;;14.40;12.88;;;13.70;99.90;;;;;;5036386;28;20044;-73
2022/07/11 01:58:45;;;;;;;15.70;12.25;;;13.70;99.90;;;;;;5030030;28;20040;-74
2022/07/11 02:01:12;;;;;;;16.45;12.70;;;13.70;99.90;;;;;;5038151;28;20120;-73
2022/07/11 02:03:39;;;;;;;13.93;12.40;;;13.80;99.90;;;;;;5037324;28;20361;-73
2022/07/11 02:06:06;;;;;;;22.60;12.45;;;13.90;99.90;;;;;;5039903;28;20072;-73
2022/07/11 02:08:33;;;;;;;15.77;12.77;;;13.80;99.90;;;;;;5039886;28;20052;-73
2022/07/11 02:11:00;;;;;;;17.25;13.40;;;13.90;99.90;;;;;;5038531;28;20040;-73
2022/07/11 02:13:27;;;;;;;16.88;13.18;;;13.80;99.90;;;;;;5030464;28;20064;-73
2022/07/11 02:15:54;;;;;;;14.75;13.07;;;13.70;99.90;;;;;;5044045;28;20037;-72
2022/07/11 02:18:21;;;;;;;15.55;12.63;;;13.70;99.90;;;;;;5041703;28;20040;-74
2022/07/11 02:20:51;;;;;;;15.07;13.48;;;13.70;99.90;;;;;;5038503;28;20096;-73
2022/07/11 02:23:19;;;;;;;15.32;12.40;;;13.80;99.90;;;;;;5029984;28;20041;-73
2022/07/11 02:25:48;;;;;;;16.52;12.68;;;13.80;99.90;;;;;;5026548;28;20561;-73
2022/07/11 02:28:15;;;;;;;15.68;12.82;;;13.80;99.90;;;;;;5028167;28;20507;-73
2022/07/11 02:30:43;;;;;;;16.40;13.60;;;13.70;99.90;;;;;;5026368;28;20043;-73
2022/07/11 02:33:13;;;;;;;16.30;13.80;;;13.80;99.90;;;;;;5047430;28;20132;-73
2022/07/11 02:35:41;;;;;;;17.60;13.52;;;13.80;99.90;;;;;;5037669;28;20053;-74
2022/07/11 02:38:08;;;;;;;16.25;14.65;;;13.90;99.90;;;;;;5041310;28;20083;-74
2022/07/11 02:40:35;;;;;;;17.85;14.27;;;13.90;99.90;;;;;;5036245;28;20133;-73
2022/07/11 02:43:01;;;;;;;16.85;13.68;;;14.00;99.90;;;;;;5038280;28;20052;-73
2022/07/11 02:45:29;;;;;;;17.42;14.05;;;13.90;99.90;;;;;;5024413;28;20051;-73
2022/07/11 02:47:55;;;;;;;16.25;13.50;;;13.90;99.90;;;;;;5039283;28;20726;-73
2022/07/11 02:50:22;;;;;;;17.30;13.73;;;14.00;99.90;;;;;;5036825;28;20049;-72
2022/07/11 02:52:49;;;;;;;16.70;14.05;;;14.00;99.90;;;;;;5042659;28;20167;-73
2022/07/11 02:55:16;;;;;;;17.30;13.98;;;14.00;99.90;;;;;;5040199;28;20061;-74
2022/07/11 02:57:43;;;;;;;23.15;14.55;;;14.10;99.90;;;;;;5028866;28;20037;-74
2022/07/11 03:00:15;;;;;;;21.00;14.32;;;14.10;99.90;;;;;;5018230;28;20051;-72
2022/07/11 03:02:42;;;;;;;16.98;13.35;;;14.10;99.90;;;;;;5030614;28;20045;-73
2022/07/11 03:05:09;;;;;;;23.27;15.57;;;14.10;99.90;;;;;;5033640;28;20052;-73
2022/07/11 03:07:36;;;;;;;18.48;14.25;;;14.20;99.90;;;;;;5040501;28;20072;-73
2022/07/11 03:10:04;;;;;;;16.58;13.77;;;14.20;99.90;;;;;;5033361;28;20078;-74
2022/07/11 03:12:31;;;;;;;20.42;14.73;;;14.10;99.90;;;;;;5039900;28;20102;-73
2022/07/11 03:14:57;;;;;;;19.80;14.32;;;14.10;99.90;;;;;;5050642;28;20052;-74
2022/07/11 03:17:24;;;;;;;26.30;14.27;;;14.20;99.90;;;;;;5030236;28;20061;-73
2022/07/11 03:19:51;;;;;;;17.10;13.40;;;14.30;99.90;;;;;;5035546;28;20068;-73
2022/07/11 03:22:18;;;;;;;16.80;13.82;;;14.20;99.90;;;;;;5033744;28;20045;-73
2022/07/11 03:24:45;;;;;;;28.10;14.15;;;14.10;99.90;;;;;;5021725;28;20146;-74
2022/07/11 03:27:12;;;;;;;19.90;12.13;;;14.00;99.90;;;;;;5040676;28;20535;-73
2022/07/11 03:29:40;;;;;;;20.85;12.57;;;14.00;99.90;;;;;;5033432;28;20048;-74
2022/07/11 03:32:08;;;;;;;22.23;13.95;;;14.10;99.90;;;;;;5039425;28;20044;-73
2022/07/11 03:34:36;;;;;;;23.73;13.43;;;14.20;99.90;;;;;;5039145;28;20061;-73
2022/07/11 03:37:03;;;;;;;20.00;14.27;;;14.10;99.90;;;;;;5037328;28;20045;-74
2022/07/11 03:39:30;;;;;;;25.38;14.60;;;14.10;99.90;;;;;;5032937;28;20076;-73
2022/07/11 03:41:57;;;;;;;21.15;13.23;;;14.20;99.90;;;;;;5043695;28;20109;-73
2022/07/11 03:44:24;;;;;;;24.55;14.23;;;14.20;99.90;;;;;;5036078;28;20053;-73
2022/07/11 03:46:51;;;;;;;28.85;14.20;;;14.20;99.90;;;;;;5032572;28;20410;-74
2022/07/11 03:49:18;;;;;;;21.05;13.77;;;14.20;99.90;;;;;;5042095;28;20068;-74
2022/07/11 03:51:45;;;;;;;25.27;15.30;;;14.10;99.90;;;;;;5039207;28;20383;-73
2022/07/11 03:54:12;;;;;;;23.95;14.68;;;14.20;99.90;;;;;;5026887;28;20041;-73
2022/07/11 03:56:38;;;;;;;27.15;14.02;;;14.10;99.90;;;;;;5039440;28;20076;-74
2022/07/11 03:59:05;;;;;;;28.42;13.77;;;14.10;99.90;;;;;;5035740;28;20053;-73
2022/07/11 04:01:32;;;;;;;31.45;13.95;;;14.10;99.90;;;;;;5039143;28;20042;-72
2022/07/11 04:03:59;;;;;;;35.10;14.75;;;14.20;99.90;;;;;;5043648;28;20036;-73
2022/07/11 04:06:26;;;;;;;29.27;14.90;;;14.20;99.90;;;;;;5039444;28;20048;-73
2022/07/11 04:08:53;;;;;;;34.88;16.13;;;14.10;99.90;;;;;;5046457;28;20076;-74
2022/07/11 04:11:21;;;;;;;32.72;15.15;;;14.10;99.90;;;;;;5023719;28;20045;-73
2022/07/11 04:13:47;;;;;;;37.35;16.70;;;14.10;99.90;;;;;;5044295;28;20064;-74
2022/07/11 04:16:14;;;;;;;36.50;18.27;;;14.10;99.90;;;;;;5040841;28;20079;-73
2022/07/11 04:18:41;;;;;;;34.03;18.30;;;14.10;99.90;;;;;;5042874;28;20044;-73
2022/07/11 04:21:08;;;;;;;35.88;17.50;;;14.10;99.90;;;;;;5049224;28;20055;-73
2022/07/11 04:23:36;;;;;;;39.88;20.15;;;14.20;99.90;;;;;;5047099;28;20132;-73
2022/07/11 04:26:03;;;;;;;42.50;20.02;;;14.30;99.90;;;;;;5044253;28;20048;-73
2022/07/11 04:28:30;;;;;;;49.55;20.60;;;14.30;99.90;;;;;;5032436;28;20052;-72
2022/07/11 04:30:58;;;;;;;53.50;20.35;;;14.30;99.90;;;;;;5047552;28;20041;-73
2022/07/11 04:33:24;;;;;;;46.10;21.90;;;14.30;99.90;;;;;;5041966;28;20045;-73
2022/07/11 04:35:51;;;;;;;35.63;20.20;;;14.30;99.90;;;;;;5034256;28;20040;-73
2022/07/11 04:38:21;;;;;;;60.13;24.10;;;14.20;99.90;;;;;;5037755;28;20124;-73
2022/07/11 04:40:48;;;;;;;43.65;20.35;;;14.10;99.90;;;;;;5031000;28;20075;-73
2022/07/11 04:43:15;;;;;;;47.53;21.45;;;14.20;99.90;;;;;;5047654;28;20055;-73
2022/07/11 04:45:42;;;;;;;47.60;20.35;;;14.20;99.90;;;;;;5033367;28;20041;-73
2022/07/11 04:48:09;;;;;;;43.53;21.80;;;14.10;99.90;;;;;;5042858;28;20526;-73
2022/07/11 04:50:36;;;;;;;46.90;21.25;;;14.10;99.90;;;;;;5041515;28;20507;-73
2022/07/11 04:53:03;;;;;;;52.75;23.08;;;14.20;99.90;;;;;;5031979;28;20103;-73
2022/07/11 04:55:30;;;;;;;50.85;23.10;;;14.30;99.90;;;;;;5042463;28;20487;-73
2022/07/11 04:57:57;;;;;;;52.47;24.73;;;14.20;99.90;;;;;;5046757;28;20594;-72
2022/07/11 05:00:24;;;;;;;57.90;25.48;;;14.20;99.90;;;;;;5046068;28;20056;-73
2022/07/11 05:02:51;;;;;;;73.05;25.90;;;14.20;99.90;;;;;;5042773;28;20129;-73
2022/07/11 05:05:19;;;;;;;65.60;26.20;;;14.20;99.90;;;;;;5038140;28;20033;-74
2022/07/11 05:07:46;;;;;;;73.10;28.13;;;14.20;99.90;;;;;;5048974;28;20067;-73
2022/07/11 05:10:13;;;;;;;79.38;28.08;;;14.20;99.90;;;;;;5039128;28;20434;-73
2022/07/11 05:12:40;;;;;;;69.10;27.17;;;14.20;99.90;;;;;;5037248;28;21109;-73
2022/07/11 05:15:08;;;;;;;76.18;28.58;;;14.20;99.90;;;;;;5043546;28;20068;-73
2022/07/11 05:17:35;;;;;;;77.43;28.13;;;14.20;99.90;;;;;;5043348;28;20101;-73
2022/07/11 05:20:02;;;;;;;76.53;28.77;;;14.30;99.90;;;;;;5030760;28;20299;-73
2022/07/11 05:22:29;;;;;;;61.13;27.27;;;14.30;99.90;;;;;;5022512;28;20131;-73
2022/07/11 05:24:56;;;;;;;74.03;29.80;;;14.20;99.90;;;;;;5021813;28;20116;-73
2022/07/11 05:27:23;;;;;;;70.47;29.02;;;14.20;99.90;;;;;;5031364;28;20045;-73
2022/07/11 05:29:50;;;;;;;71.40;28.08;;;14.30;99.90;;;;;;5042237;28;20041;-73
2022/07/11 05:32:17;;;;;;;78.43;30.52;;;14.20;99.90;;;;;;5038427;28;20049;-73
2022/07/11 05:34:44;;;;;;;67.38;29.15;;;14.30;99.90;;;;;;5034236;28;20322;-73
2022/07/11 05:37:11;;;;;;;69.88;30.92;;;14.30;99.90;;;;;;5035980;28;20561;-73
2022/07/11 05:39:37;;;;;;;58.58;28.90;;;14.30;99.90;;;;;;5013689;28;20076;-73
2022/07/11 05:42:05;;;;;;;56.45;27.98;;;14.30;99.90;;;;;;5032717;28;20749;-73
2022/07/11 05:44:31;;;;;;;53.35;28.23;;;14.20;99.90;;;;;;5031856;28;20396;-73
2022/07/11 05:47:02;;;;;;;51.95;27.40;;;14.20;99.90;;;;;;5033176;28;20048;-73
2022/07/11 05:49:31;;;;;;;51.72;26.73;;;14.10;99.90;;;;;;5047252;28;20136;-73
2022/07/11 05:51:58;;;;;;;47.78;25.70;;;14.20;99.90;;;;;;5041060;28;20095;-72
2022/07/11 05:54:25;;;;;;;50.83;27.27;;;14.20;99.90;;;;;;5038354;28;20047;-73
2022/07/11 05:56:52;;;;;;;44.70;27.15;;;14.20;99.90;;;;;;5039454;28;20127;-73
2022/07/11 05:59:18;;;;;;;54.30;28.90;;;14.30;99.90;;;;;;5031550;28;20103;-73
2022/07/11 06:01:46;;;;;;;61.85;32.50;;;14.20;99.90;;;;;;5025652;28;20064;-73
2022/07/11 06:04:14;;;;;;;46.47;28.33;;;14.20;99.90;;;;;;5040862;28;20049;-73
2022/07/11 06:06:40;;;;;;;44.35;28.23;;;14.10;99.90;;;;;;5019717;28;20272;-73
2022/07/11 06:09:07;;;;;;;50.78;30.90;;;14.10;99.90;;;;;;5038455;28;20051;-73
2022/07/11 06:11:34;;;;;;;47.50;29.70;;;14.20;99.90;;;;;;5029217;28;20543;-73
2022/07/11 06:14:00;;;;;;;48.92;28.13;;;14.20;99.90;;;;;;5025140;28;20052;-73
2022/07/11 06:16:28;;;;;;;46.05;27.90;;;14.30;99.90;;;;;;5041657;28;20045;-73
2022/07/11 06:18:55;;;;;;;44.70;26.98;;;14.30;99.90;;;;;;5041097;28;20130;-73
2022/07/11 06:21:21;;;;;;;46.65;28.33;;;14.30;99.90;;;;;;5039110;28;20103;-73
2022/07/11 06:23:48;;;;;;;41.05;23.23;;;14.30;99.90;;;;;;5032326;28;20529;-73
2022/07/11 06:26:15;;;;;;;35.38;22.40;;;14.40;99.90;;;;;;5022137;28;20503;-73
2022/07/11 06:28:42;;;;;;;37.15;24.88;;;14.30;99.90;;;;;;5023435;28;20044;-73
2022/07/11 06:31:10;;;;;;;41.17;23.73;;;14.40;99.90;;;;;;5029879;28;20068;-74
2022/07/11 06:33:37;;;;;;;38.50;24.35;;;14.30;99.90;;;;;;5035502;28;21650;-73
2022/07/11 06:36:05;;;;;;;42.75;25.75;;;14.40;99.90;;;;;;5022401;28;20423;-75
2022/07/11 06:38:33;;;;;;;42.15;25.08;;;14.40;99.90;;;;;;5040205;28;20049;-73
2022/07/11 06:41:00;;;;;;;38.80;25.85;;;14.40;99.90;;;;;;5031160;28;20060;-74
2022/07/11 06:43:30;;;;;;;39.65;24.98;;;14.30;99.90;;;;;;5039909;28;20095;-73
2022/07/11 06:45:57;;;;;;;37.63;25.23;;;14.40;99.90;;;;;;5028228;28;20103;-74
2022/07/11 06:48:25;;;;;;;33.20;22.63;;;14.50;99.90;;;;;;5042278;28;20053;-73
2022/07/11 06:50:52;;;;;;;31.38;22.15;;;14.50;99.90;;;;;;5041713;28;20040;-72
2022/07/11 06:53:19;;;;;;;36.42;22.70;;;14.50;99.90;;;;;;5026447;28;20049;-73
2022/07/11 06:55:46;;;;;;;27.95;18.55;;;14.50;99.90;;;;;;5023069;28;20445;-73
2022/07/11 06:58:31;;;;;;;23.77;17.38;;;14.50;99.90;;;;;;5035880;28;20045;-73
2022/07/11 07:01:04;;;;;;;21.38;16.60;;;14.50;99.90;;;;;;5038831;28;20044;-73
2022/07/11 07:03:32;;;;;;;26.92;17.92;;;14.60;99.90;;;;;;5043071;28;20062;-73
2022/07/11 07:06:00;;;;;;;20.90;15.50;;;14.60;99.90;;;;;;5028683;28;20048;-74
2022/07/11 07:08:28;;;;;;;26.83;17.20;;;14.60;99.90;;;;;;5028977;28;20076;-73
2022/07/11 07:10:56;;;;;;;15.90;12.50;;;14.70;99.90;;;;;;5043514;28;20033;-73
2022/07/11 07:13:28;;;;;;;18.85;13.00;;;14.60;99.90;;;;;;5037171;28;20076;-73
2022/07/11 07:15:59;;;;;;;17.92;12.20;;;14.60;99.90;;;;;;5032730;28;20057;-73
2022/07/11 07:18:26;;;;;;;9.38;7.55;;;14.70;99.90;;;;;;5023599;28;20186;-72
2022/07/11 07:20:53;;;;;;;10.43;7.38;;;14.50;99.90;;;;;;5040231;28;20037;-73
2022/07/11 07:23:20;;;;;;;8.07;6.38;;;14.60;99.90;;;;;;5039836;28;20053;-73
2022/07/11 07:25:47;;;;;;;5.30;4.57;;;14.60;99.90;;;;;;5034955;28;20041;-73
2022/07/11 07:28:14;;;;;;;6.97;4.45;;;14.50;99.90;;;;;;5033410;28;20222;-72
2022/07/11 07:30:41;;;;;;;4.95;4.50;;;14.50;99.90;;;;;;5041877;28;20081;-73
2022/07/11 07:33:11;;;;;;;4.97;4.18;;;14.50;99.90;;;;;;5022209;28;20106;-73
2022/07/11 07:35:37;;;;;;;4.88;4.03;;;14.50;99.90;;;;;;5043088;28;20106;-73
2022/07/11 07:38:04;;;;;;;6.40;4.10;;;14.50;99.90;;;;;;5040305;28;20049;-73
2022/07/11 07:40:31;;;;;;;2.22;1.80;;;14.60;99.90;;;;;;5029862;28;20552;-73
2022/07/11 07:42:57;;;;;;;2.10;2.00;;;14.60;99.90;;;;;;5037441;28;20049;-73
2022/07/11 07:45:24;;;;;;;2.95;1.80;;;14.50;99.90;;;;;;5041302;28;20499;-72
2022/07/11 07:47:51;;;;;;;1.98;1.88;;;14.50;99.90;;;;;;5041753;28;20040;-73
2022/07/11 07:50:18;;;;;;;2.38;1.70;;;14.40;99.90;;;;;;5038895;28;20041;-73
2022/07/11 07:52:45;;;;;;;2.25;1.60;;;14.30;99.90;;;;;;5031835;28;20049;-73
2022/07/11 07:55:12;;;;;;;1.50;1.40;;;14.20;99.90;;;;;;5038936;28;20072;-72
2022/07/11 07:57:39;;;;;;;9.80;1.77;;;14.10;99.90;;;;;;5039315;28;20415;-72
2022/07/11 08:02:52;;;;;;;3.13;1.92;;;14.10;99.90;;;;;;5047176;28;20613;-74
2022/07/11 08:05:19;;;;;;;1.83;1.73;;;14.30;99.90;;;;;;5041406;28;20479;-73
2022/07/11 08:07:47;;;;;;;1.65;1.55;;;14.50;99.90;;;;;;5025644;28;20140;-74
2022/07/11 08:10:14;;;;;;;1.98;1.35;;;14.70;99.90;;;;;;5041340;28;20503;-74
2022/07/11 08:12:41;;;;;;;2.00;1.90;;;14.80;99.90;;;;;;5030837;28;20381;-73
2022/07/11 08:15:09;;;;;;;2.33;2.10;;;14.80;99.90;;;;;;5037338;28;20104;-74
2022/07/11 08:17:36;;;;;;;3.75;2.10;;;14.90;99.90;;;;;;5040105;28;20036;-74
2022/07/11 08:20:03;;;;;;;2.30;2.10;;;15.10;99.90;;;;;;5036263;28;20391;-74
2022/07/11 08:22:30;;;;;;;2.30;2.20;;;15.20;99.90;;;;;;5022540;28;20079;-74
2022/07/11 08:24:57;;;;;;;5.68;2.75;;;15.40;99.90;;;;;;5042989;28;20083;-73
2022/07/11 08:27:23;;;;;;;3.58;3.38;;;15.60;99.90;;;;;;5043080;28;20839;-72
2022/07/11 08:30:08;;;;;;;5.00;4.70;;;15.80;99.90;;;;;;5039839;28;20306;-73
2022/07/11 08:32:40;;;;;;;5.35;5.15;;;15.70;99.90;;;;;;5036739;28;20067;-73
2022/07/11 08:35:08;;;;;;;5.63;5.43;;;15.60;99.90;;;;;;5042996;28;20120;-73
2022/07/11 08:37:36;;;;;;;5.20;5.00;;;15.80;99.90;;;;;;5027631;28;20131;-73
2022/07/11 08:40:04;;;;;;;4.90;4.57;;;15.90;99.90;;;;;;5040659;28;20052;-73
2022/07/11 08:42:31;;;;;;;5.10;4.90;;;16.00;99.90;;;;;;5042986;28;20473;-73
2022/07/11 08:44:58;;;;;;;7.25;6.90;;;16.20;99.90;;;;;;5041885;28;20033;-73
2022/07/11 08:47:26;;;;;;;6.60;6.10;;;16.10;99.90;;;;;;5039361;28;20659;-74
2022/07/11 08:49:52;;;;;;;8.13;7.53;;;16.10;99.90;;;;;;5044386;28;20538;-73
2022/07/11 08:52:20;;;;;;;6.82;6.53;;;16.00;99.90;;;;;;5042525;28;20132;-73
2022/07/11 08:54:46;;;;;;;7.45;7.07;;;16.10;99.90;;;;;;5043743;28;20435;-73
2022/07/11 08:57:15;;;;;;;9.15;8.75;;;16.20;99.90;;;;;;5037682;28;20049;-72
2022/07/11 08:59:43;;;;;;;8.98;8.48;;;16.20;99.90;;;;;;5033755;28;20351;-73
2022/07/11 09:02:12;;;;;;;8.15;7.72;;;16.20;99.90;;;;;;5042694;28;20068;-73
2022/07/11 09:04:39;;;;;;;9.18;8.77;;;16.20;99.90;;;;;;5016669;28;20419;-73
2022/07/11 09:07:06;;;;;;;9.70;9.25;;;16.20;99.90;;;;;;5018200;28;20103;-73
2022/07/11 09:09:33;;;;;;;9.88;9.40;;;16.20;99.90;;;;;;5045686;28;20053;-72
2022/07/11 09:12:00;;;;;;;9.50;8.93;;;16.40;99.90;;;;;;5030046;28;20084;-72
2022/07/11 09:14:27;;;;;;;9.95;9.55;;;16.30;99.90;;;;;;5045260;28;20056;-73
2022/07/11 09:17:00;;;;;;;11.60;10.95;;;16.20;99.90;;;;;;5033482;28;20669;-73
2022/07/11 09:19:32;;;;;;;10.07;9.57;;;16.00;99.90;;;;;;5037960;28;20056;-73
2022/07/11 09:27:48;;;;;;;9.45;9.05;;;15.90;99.90;;;;;;5022528;28;20045;-73
2022/07/11 09:30:17;;;;;;;9.85;9.35;;;15.80;99.90;;;;;;5038917;28;20498;-72
2022/07/11 09:32:59;;;;;;;11.00;10.20;;;15.80;99.90;;;;;;5020650;28;20049;-73
2022/07/11 09:35:30;;;;;;;10.60;10.05;;;15.80;99.90;;;;;;5036468;28;20068;-73
2022/07/11 09:38:03;;;;;;;10.55;10.05;;;15.80;99.90;;;;;;5064027;22;20051;-69
2022/07/11 09:40:30;;;;;;;11.30;10.68;;;15.80;99.90;;;;;;5037277;28;20048;-70
2022/07/11 09:42:59;;;;;;;10.82;10.00;;;15.50;99.90;;;;;;5028523;28;20037;-70
2022/07/11 09:45:28;;;;;;;10.10;9.50;;;15.50;99.90;;;;;;5051834;28;20048;-70
2022/07/11 09:48:01;;;;;;;10.50;9.82;;;15.60;99.90;;;;;;5044833;28;20103;-71
2022/07/11 09:50:30;;;;;;;10.55;9.98;;;15.50;99.90;;;;;;5028359;28;20033;-70
2022/07/11 09:53:12;;;;;;;9.90;9.45;;;15.50;99.90;;;;;;5034022;28;20385;-70
2022/07/11 09:55:41;;;;;;;9.32;8.82;;;15.80;99.90;;;;;;5028783;28;20044;-70
2022/07/11 09:58:21;;;;;;;9.73;9.32;;;15.90;99.90;;;;;;5028166;28;20032;-71
2022/07/11 10:00:50;;;;;;;10.80;10.20;;;16.10;99.90;;;;;;5030972;28;20033;-70
2022/07/11 10:03:25;;;;;;;10.10;9.60;;;16.30;99.90;;;;;;5031913;28;20049;-71
2022/07/11 10:06:12;;;;;;;11.15;10.48;;;16.60;99.90;;;;;;5011684;28;20107;-71
2022/07/11 10:08:39;;;;;;;12.32;11.68;;;16.80;99.90;;;;;;5020308;28;20041;-71
2022/07/11 10:11:06;;;;;;;13.80;13.10;;;16.80;99.90;;;;;;5030382;28;20188;-72
2022/07/11 10:13:32;;;;;;;13.50;12.90;;;16.80;99.90;;;;;;5031823;28;20118;-71
2022/07/11 10:16:03;;;;;;;13.20;12.45;;;17.00;99.90;;;;;;5031067;28;20049;-71
2022/07/11 10:18:45;;;;;;;13.25;12.45;;;17.10;99.90;;;;;;5028192;28;20405;-72
2022/07/11 10:21:18;;;;;;;13.10;12.50;;;17.20;99.90;;;;;;5030276;28;20053;-72
2022/07/11 10:24:34;;;;;;;14.45;13.63;;;17.30;99.90;;;;;;5028416;28;20041;-71
2022/07/11 10:27:14;;;;;;;15.23;14.32;;;17.30;99.90;;;;;;5029485;28;20037;-71
2022/07/11 10:29:48;;;;;;;14.30;13.43;;;17.40;99.90;;;;;;5014925;28;20190;-71
2022/07/11 10:32:16;;;;;;;14.55;13.85;;;17.50;99.90;;;;;;5030104;28;20123;-72
2022/07/11 10:34:44;;;;;;;15.82;14.93;;;17.80;99.90;;;;;;5030357;28;20136;-71
2022/07/11 10:37:12;;;;;;;16.67;15.77;;;18.00;99.90;;;;;;5028884;28;20064;-72
2022/07/11 10:39:56;;;;;;;16.00;15.18;;;18.10;99.90;;;;;;5031839;28;20120;-71
2022/07/11 10:42:38;;;;;;;16.75;15.85;;;18.20;99.90;;;;;;5029811;28;20561;-71
2022/07/11 10:45:09;;;;;;;18.17;17.15;;;18.00;99.90;;;;;;5032103;28;20107;-70
2022/07/11 10:47:43;;;;;;;16.98;16.08;;;17.60;99.90;;;;;;5031823;28;20168;-71
2022/07/11 10:50:37;;;;;;;16.80;15.88;;;17.40;99.90;;;;;;5031283;28;20464;-71
2022/07/11 10:53:20;;;;;;;15.90;15.10;;;17.20;99.90;;;;;;5031255;28;20055;-71
2022/07/11 10:56:12;;;;;;;16.83;15.93;;;17.20;99.90;;;;;;5032387;28;20049;-69
2022/07/11 10:59:14;;;;;;;16.90;15.90;;;17.10;99.90;;;;;;5025065;28;20057;-71
2022/07/11 11:02:01;;;;;;;16.58;15.50;;;17.00;99.90;;;;;;5031847;28;20051;-71
2022/07/11 11:04:42;;;;;;;15.57;14.77;;;17.10;99.90;;;;;;5027802;28;20041;-71
2022/07/11 11:07:38;;;;;;;16.08;14.98;;;17.10;99.90;;;;;;5027176;28;20419;-70
2022/07/11 11:10:29;;;;;;;16.90;15.63;;;17.20;99.90;;;;;;5030609;28;20041;-70
2022/07/11 11:13:05;;;;;;;16.83;15.77;;;17.40;99.90;;;;;;5030485;28;20470;-71
2022/07/11 11:15:49;;;;;;;16.48;15.48;;;17.30;99.90;;;;;;5027432;28;20072;-69
2022/07/11 11:18:25;;;;;;;16.83;15.82;;;17.30;99.90;;;;;;5025337;28;20738;-71
2022/07/11 11:21:07;;;;;;;17.27;16.13;;;17.10;99.90;;;;;;5028198;28;20100;-71
2022/07/11 11:23:44;;;;;;;16.05;14.95;;;17.00;99.90;;;;;;5031303;28;20523;-69
2022/07/11 11:26:18;;;;;;;17.58;16.48;;;16.90;99.90;;;;;;5015101;28;20307;-69
2022/07/11 11:28:59;;;;;;;17.23;16.02;;;16.80;99.90;;;;;;5029424;28;20061;-69
2022/07/11 11:31:27;;;;;;;17.33;16.42;;;16.80;99.90;;;;;;5013862;28;20045;-70
2022/07/11 11:33:54;;;;;;;18.00;16.67;;;16.80;99.90;;;;;;5031437;28;20099;-71
2022/07/11 11:36:22;;;;;;;16.98;16.02;;;16.90;99.90;;;;;;5028290;28;20040;-69
2022/07/11 11:38:49;;;;;;;16.50;15.50;;;16.90;99.90;;;;;;5028709;28;20198;-71
2022/07/11 11:41:23;;;;;;;18.00;16.90;;;17.00;99.90;;;;;;5031736;28;20068;-72
2022/07/11 11:43:51;;;;;;;17.58;16.48;;;17.10;99.90;;;;;;5030814;28;20059;-71
2022/07/11 11:46:18;;;;;;;16.48;15.60;;;17.20;99.90;;;;;;5011693;28;20313;-72
2022/07/11 11:48:46;;;;;;;18.83;17.42;;;17.40;99.90;;;;;;5030548;28;20045;-73
2022/07/11 11:51:15;;;;;;;18.88;17.67;;;17.40;99.90;;;;;;5015027;28;20294;-70
2022/07/11 11:53:47;;;;;;;18.23;17.27;;;17.40;99.90;;;;;;5024575;28;20045;-71
2022/07/11 11:56:15;;;;;;;17.88;16.88;;;17.40;99.90;;;;;;5033184;28;20548;-71
2022/07/11 11:58:45;;;;;;;18.98;17.88;;;17.40;99.90;;;;;;5015210;28;20076;-72
2022/07/11 12:01:13;;;;;;;19.50;18.38;;;17.40;99.90;;;;;;5028589;28;20049;-72
2022/07/11 12:03:55;;;;;;;19.67;18.58;;;17.40;99.90;;;;;;5030934;28;20080;-71
2022/07/11 12:06:24;;;;;;;20.25;18.95;;;17.40;99.90;;;;;;5028829;28;20041;-72
2022/07/11 12:08:51;;;;;;;19.10;17.83;;;17.30;99.90;;;;;;5034737;28;20029;-73
2022/07/11 12:11:18;;;;;;;18.85;17.83;;;17.40;99.90;;;;;;5026798;28;20037;-70
2022/07/11 12:13:45;;;;;;;19.98;18.75;;;17.50;99.90;;;;;;5023416;28;20046;-72
2022/07/11 12:19:04;;;;;;;20.25;18.98;;;17.20;99.90;;;;;;5033672;28;20519;-71
2022/07/11 12:21:31;;;;;;;19.60;18.23;;;17.30;99.90;;;;;;5025531;28;20506;-72
2022/07/11 12:24:04;;;;;;;18.70;17.40;;;17.30;99.90;;;;;;5032731;28;20449;-73
2022/07/11 12:26:37;;;;;;;18.08;16.98;;;17.10;99.90;;;;;;5031939;28;20407;-71
2022/07/11 12:29:24;;;;;;;17.13;16.00;;;17.10;99.90;;;;;;5034917;28;20049;-71
2022/07/11 12:31:53;;;;;;;17.83;16.63;;;17.10;99.90;;;;;;5027361;28;20274;-73
2022/07/11 12:34:23;;;;;;;18.70;17.50;;;17.20;99.90;;;;;;5029543;28;20691;-72
2022/07/11 12:36:51;;;;;;;19.55;18.35;;;17.30;99.90;;;;;;5021731;28;20387;-72
2022/07/11 12:39:26;;;;;;;19.88;18.45;;;17.10;99.90;;;;;;5032554;28;20065;-71
2022/07/11 12:41:54;;;;;;;19.15;17.95;;;17.00;99.90;;;;;;5030894;28;20044;-72
2022/07/11 12:47:24;;;;;;;19.33;18.13;;;17.00;99.90;;;;;;5029443;28;20068;-72
2022/07/11 12:49:51;;;;;;;18.88;17.77;;;17.00;99.90;;;;;;5031510;28;20084;-73
2022/07/11 12:52:18;;;;;;;18.27;16.85;;;17.00;99.90;;;;;;5032720;28;20041;-72
2022/07/11 12:54:45;;;;;;;17.55;16.45;;;17.00;99.90;;;;;;5035439;28;20052;-72
2022/07/11 12:57:20;;;;;;;17.17;16.05;;;17.00;99.90;;;;;;5030116;28;20125;-73